This is the latest recevied weather packets stored in our database for station/object CE4ERM-13. If no packets are shown the sender has not sent any weather packets the latest 1 day(s).
| Time | Temp. | Humidity | Pressure | Rain* | Wind** | Luminosity | Snow |
|---|---|---|---|---|---|---|---|
| 1777882204 | 18.89° C | 35% | 1016.3 hPa | - | - | - | - |
| 1777882048 | 18.89° C | 35% | 1016.3 hPa | - | - | - | - |
| 1777881551 | 18.89° C | 35% | 1016.1 hPa | - | - | - | - |
| 1777881448 | 18.89° C | 35% | 1016.1 hPa | - | - | - | - |
| 1777881020 | 18.33° C | 37% | 1018.2 hPa | - | - | - | - |
| 1777880847 | 18.89° C | 35% | 1016.8 hPa | - | - | - | - |
| 1777880513 | 18.89° C | 37% | 1019.7 hPa | - | - | - | - |
| 1777880420 | 18.89° C | 37% | 1019.7 hPa | - | - | - | - |
| 1777880247 | 19.44° C | 35% | 1018.4 hPa | - | - | - | - |
| 1777879220 | 18.89° C | 36% | 1018.3 hPa | - | - | - | - |
| 1777879047 | 19.44° C | 35% | 1019.3 hPa | - | - | - | - |
| 1777878688 | 18.89° C | 36% | 1009.6 hPa | - | - | - | - |
| 1777878651 | 18.89° C | 36% | 1009.6 hPa | - | - | - | - |
| 1777878620 | 18.89° C | 36% | 1009.6 hPa | - | - | - | - |
| 1777878447 | 19.44° C | 34% | 1018.6 hPa | - | - | - | - |
| 1777877846 | 19.44° C | 34% | 1018.3 hPa | - | - | - | - |
| 1777877419 | 18.89° C | 36% | 1018 hPa | - | - | - | - |
| 1777877246 | 19.44° C | 33% | 1018.2 hPa | - | - | - | - |
| 1777876819 | 18.89° C | 36% | 1019.4 hPa | - | - | - | - |
| 1777876646 | 19.44° C | 34% | 1018.4 hPa | - | - | - | - |
| 1777876046 | 20° C | 33% | 1018 hPa | - | - | - | - |
| 1777875618 | 19.44° C | 36% | 1018.4 hPa | - | - | - | - |
| 1777875446 | 20° C | 33% | 1018.2 hPa | - | - | - | - |
| 1777875018 | 19.44° C | 36% | 1019 hPa | - | - | - | - |
| 1777874845 | 19.44° C | 33% | 1019 hPa | - | - | - | - |
* Rain since midnight (hover to see other rain measurements)
** Current wind speed in m/s (hover to see current wind gust speed)